createdAt,value
2017-06-17T00:00:25.093Z,0.80
2017-06-17T00:02:54.648Z,0.80
2017-06-17T00:05:24.808Z,0.90
2017-06-17T00:07:54.296Z,0.90
2017-06-17T00:10:24.113Z,1.20
2017-06-17T00:12:53.336Z,0.87
2017-06-17T00:15:22.885Z,1.20
2017-06-17T00:17:52.409Z,0.80
2017-06-17T00:20:21.725Z,1.30
2017-06-17T00:22:51.246Z,1.17
2017-06-17T00:25:20.804Z,1.17
2017-06-17T00:27:50.298Z,1.07
2017-06-17T00:30:19.589Z,1.47
2017-06-17T00:32:48.666Z,1.90
2017-06-17T00:35:18.307Z,1.40
2017-06-17T00:37:47.845Z,1.10
2017-06-17T00:40:17.447Z,4.37
2017-06-17T00:42:47.188Z,2.07
2017-06-17T00:45:16.329Z,2.13
2017-06-17T00:47:45.938Z,2.37
2017-06-17T00:50:15.399Z,1.60
2017-06-17T00:52:44.963Z,1.13
2017-06-17T00:55:15.529Z,1.00
2017-06-17T00:57:44.944Z,1.10
2017-06-17T01:00:15.201Z,8.00
2017-06-17T01:02:44.822Z,11.53
2017-06-17T01:05:14.236Z,1.90
2017-06-17T01:07:43.830Z,1.80
2017-06-17T01:10:14.004Z,1.43
2017-06-17T01:12:43.477Z,1.50
2017-06-17T01:15:12.912Z,1.50
2017-06-17T01:17:42.668Z,1.07
2017-06-17T01:20:11.819Z,1.40
2017-06-17T01:22:41.343Z,1.13
2017-06-17T01:25:10.553Z,1.20
2017-06-17T01:27:39.705Z,1.00
2017-06-17T01:30:13.181Z,1.00
2017-06-17T01:32:42.619Z,1.20
2017-06-17T01:35:11.960Z,2.63
2017-06-17T01:37:41.517Z,1.47
2017-06-17T01:40:11.242Z,1.37
2017-06-17T01:42:40.580Z,0.90
2017-06-17T01:45:10.095Z,1.20
2017-06-17T01:47:40.626Z,1.10
2017-06-17T01:50:10.810Z,1.00
2017-06-17T01:52:40.345Z,1.30
2017-06-17T01:55:09.854Z,1.17
2017-06-17T01:57:41.246Z,0.97
2017-06-17T02:00:10.827Z,1.10
2017-06-17T02:02:41.833Z,1.00
2017-06-17T02:05:11.420Z,1.07
2017-06-17T02:07:40.964Z,1.10
2017-06-17T02:10:10.350Z,1.07
2017-06-17T02:12:40.052Z,0.90
2017-06-17T02:15:09.166Z,0.90
2017-06-17T02:17:38.544Z,1.20
2017-06-17T02:20:07.923Z,1.17
2017-06-17T02:22:37.496Z,0.70
2017-06-17T02:25:07.189Z,1.07
2017-06-17T02:27:36.739Z,0.93
2017-06-17T02:30:06.033Z,1.60
2017-06-17T02:32:35.751Z,1.20
2017-06-17T02:35:05.154Z,0.93
2017-06-17T02:37:34.938Z,1.30
2017-06-17T02:40:05.592Z,0.80
2017-06-17T02:42:34.965Z,0.97
2017-06-17T02:45:04.757Z,0.90
2017-06-17T02:47:34.635Z,0.90
2017-06-17T02:50:03.813Z,0.80
2017-06-17T02:52:33.319Z,0.90
2017-06-17T02:55:02.757Z,0.80
2017-06-17T02:57:32.336Z,0.90
2017-06-17T03:00:01.834Z,1.10
2017-06-17T03:02:31.550Z,0.80
2017-06-17T03:05:01.798Z,0.77
2017-06-17T03:07:31.334Z,0.97
2017-06-17T03:10:00.918Z,0.70
2017-06-17T03:12:30.426Z,1.40
2017-06-17T03:14:59.738Z,1.00
2017-06-17T03:17:28.829Z,0.93
2017-06-17T03:19:58.047Z,1.10
2017-06-17T03:22:27.532Z,1.07
2017-06-17T03:24:57.065Z,1.00
2017-06-17T03:27:26.552Z,1.13
2017-06-17T03:29:56.094Z,1.27
2017-06-17T03:32:25.319Z,1.30
2017-06-17T03:34:54.942Z,1.03
2017-06-17T03:37:24.623Z,1.10
2017-06-17T03:39:53.802Z,1.17
2017-06-17T03:42:23.247Z,2.20
2017-06-17T03:44:52.386Z,3.07
2017-06-17T03:47:21.826Z,2.50
2017-06-17T03:49:51.013Z,2.30
2017-06-17T03:52:20.502Z,2.30
2017-06-17T03:54:49.833Z,2.00
2017-06-17T03:57:19.155Z,2.20
2017-06-17T03:59:48.870Z,2.37
2017-06-17T04:02:18.269Z,2.90
2017-06-17T04:04:47.660Z,2.00
2017-06-17T04:07:18.314Z,2.80
2017-06-17T04:09:47.780Z,1.90
2017-06-17T04:12:17.513Z,1.77
2017-06-17T04:14:46.891Z,2.23
2017-06-17T04:17:16.161Z,2.87
2017-06-17T04:19:45.358Z,2.83
2017-06-17T04:22:15.144Z,2.93
2017-06-17T04:24:44.393Z,2.33
2017-06-17T04:27:13.786Z,1.73
2017-06-17T04:29:45.137Z,2.40
2017-06-17T04:32:15.332Z,1.90
2017-06-17T04:34:44.631Z,2.03
2017-06-17T04:37:14.008Z,2.27
2017-06-17T04:39:43.377Z,2.10
2017-06-17T04:42:12.672Z,2.30
2017-06-17T04:44:42.031Z,2.03
2017-06-17T04:47:11.664Z,2.20
2017-06-17T04:49:48.309Z,2.27
2017-06-17T04:52:18.071Z,1.50
2017-06-17T04:54:47.632Z,2.30
2017-06-17T04:57:17.207Z,2.10
2017-06-17T04:59:46.724Z,1.83
2017-06-17T05:02:16.077Z,2.30
2017-06-17T05:04:45.709Z,1.90
2017-06-17T05:07:14.976Z,2.03
2017-06-17T05:09:45.201Z,1.97
2017-06-17T05:12:14.807Z,2.00
2017-06-17T05:14:44.008Z,2.10
2017-06-17T05:17:13.390Z,2.50
2017-06-17T05:19:42.608Z,2.00
2017-06-17T05:22:11.730Z,2.57
2017-06-17T05:24:40.940Z,2.10
2017-06-17T05:27:10.395Z,2.30
2017-06-17T05:29:39.656Z,2.70
2017-06-17T05:32:09.350Z,1.93
2017-06-17T05:34:38.806Z,1.80
2017-06-17T05:37:08.351Z,2.33
2017-06-17T05:39:37.969Z,1.70
2017-06-17T05:42:07.487Z,2.27
2017-06-17T05:44:36.914Z,2.10
2017-06-17T05:47:06.053Z,2.07
2017-06-17T05:49:35.498Z,2.40
2017-06-17T05:52:04.639Z,1.87
2017-06-17T05:54:35.494Z,2.20
2017-06-17T05:57:04.885Z,2.10
2017-06-17T05:59:34.592Z,2.03
2017-06-17T06:02:04.089Z,2.47
2017-06-17T06:04:33.639Z,2.30
2017-06-17T06:07:03.062Z,2.23
2017-06-17T06:09:32.589Z,2.30
2017-06-17T06:12:02.685Z,2.60
2017-06-17T06:14:32.186Z,2.00
2017-06-17T06:17:01.447Z,2.10
2017-06-17T06:19:31.291Z,2.00
2017-06-17T06:22:00.583Z,2.60
2017-06-17T06:24:29.467Z,2.43
2017-06-17T06:26:59.086Z,1.87
2017-06-17T06:29:28.479Z,2.10
2017-06-17T06:31:57.913Z,2.47
2017-06-17T06:34:27.284Z,2.00
2017-06-17T06:36:56.573Z,1.60
2017-06-17T06:39:25.613Z,2.50
2017-06-17T06:41:55.033Z,2.50
2017-06-17T06:44:24.472Z,2.00
2017-06-17T06:46:53.912Z,2.40
2017-06-17T06:49:23.218Z,2.47
2017-06-17T06:51:52.520Z,2.10
2017-06-17T06:54:21.773Z,2.30
2017-06-17T06:56:51.934Z,2.47
2017-06-17T06:59:22.512Z,2.37
2017-06-17T07:01:52.841Z,3.07
2017-06-17T07:04:22.406Z,2.40
2017-06-17T07:06:52.922Z,2.40
2017-06-17T07:09:22.768Z,2.80
2017-06-17T07:11:51.880Z,2.50
2017-06-17T07:14:22.156Z,2.33
2017-06-17T07:16:51.924Z,2.40
2017-06-17T07:19:22.265Z,1.90
2017-06-17T07:21:51.740Z,2.57
2017-06-17T07:24:21.777Z,3.00
2017-06-17T07:26:51.233Z,2.30
2017-06-17T07:29:19.962Z,2.50
2017-06-17T07:31:48.684Z,2.60
2017-06-17T07:34:17.356Z,2.63
2017-06-17T07:36:46.529Z,3.00
2017-06-17T07:39:15.980Z,2.40
2017-06-17T07:41:45.274Z,2.33
2017-06-17T07:44:15.340Z,2.70
2017-06-17T07:46:44.724Z,2.10
2017-06-17T07:49:14.042Z,2.60
2017-06-17T07:51:43.454Z,2.70
2017-06-17T07:54:13.671Z,3.03
2017-06-17T07:56:42.847Z,2.97
2017-06-17T07:59:12.131Z,2.87
2017-06-17T08:01:41.346Z,3.07
2017-06-17T08:04:11.003Z,2.63
2017-06-17T08:06:40.430Z,3.00
2017-06-17T08:09:09.953Z,2.93
2017-06-17T08:11:39.521Z,2.20
2017-06-17T08:14:09.088Z,2.70
2017-06-17T08:16:39.978Z,2.70
2017-06-17T08:19:09.385Z,2.73
2017-06-17T08:21:38.975Z,2.70
2017-06-17T08:24:08.434Z,2.77
2017-06-17T08:26:38.064Z,3.00
2017-06-17T08:29:07.415Z,2.10
2017-06-17T08:31:36.103Z,3.23
2017-06-17T08:34:05.614Z,3.10
2017-06-17T08:36:35.222Z,2.70
2017-06-17T08:39:04.996Z,2.50
2017-06-17T08:41:34.251Z,3.10
2017-06-17T08:44:03.553Z,2.43
2017-06-17T08:46:33.007Z,2.90
2017-06-17T08:49:02.363Z,3.53
2017-06-17T08:51:31.666Z,3.73
2017-06-17T08:54:01.240Z,2.70
2017-06-17T08:56:30.885Z,2.83
2017-06-17T08:59:00.115Z,2.90
2017-06-17T09:01:29.597Z,3.13
2017-06-17T09:03:58.983Z,3.73
2017-06-17T09:06:28.416Z,3.40
2017-06-17T09:08:57.837Z,3.43
2017-06-17T09:11:27.436Z,3.03
2017-06-17T09:13:56.574Z,2.77
2017-06-17T09:16:26.037Z,2.93
2017-06-17T09:18:57.589Z,3.10
2017-06-17T09:21:27.137Z,3.40
2017-06-17T09:23:56.271Z,2.80
2017-06-17T09:26:25.778Z,3.33
2017-06-17T09:28:55.050Z,3.23
2017-06-17T09:31:24.340Z,2.87
2017-06-17T09:33:53.714Z,2.87
2017-06-17T09:36:23.162Z,3.37
2017-06-17T09:38:52.677Z,3.37
2017-06-17T09:41:22.111Z,3.27
2017-06-17T09:43:52.104Z,3.37
2017-06-17T09:46:21.434Z,3.20
2017-06-17T09:48:51.116Z,3.80
2017-06-17T09:51:20.758Z,3.23
2017-06-17T09:53:50.343Z,3.60
2017-06-17T09:56:20.064Z,3.80
2017-06-17T09:58:50.389Z,4.20
2017-06-17T10:01:19.982Z,3.97
2017-06-17T10:03:49.016Z,4.37
2017-06-17T10:06:18.404Z,4.40
2017-06-17T10:08:47.932Z,4.43
2017-06-17T10:11:17.392Z,3.80
2017-06-17T10:13:46.731Z,3.50
2017-06-17T10:16:16.219Z,4.37
2017-06-17T10:18:45.727Z,3.90
2017-06-17T10:21:16.541Z,4.60
2017-06-17T10:23:45.702Z,4.57
2017-06-17T10:26:15.069Z,4.37
2017-06-17T10:28:44.554Z,4.80
2017-06-17T10:31:14.276Z,4.60
2017-06-17T10:33:43.474Z,3.93
2017-06-17T10:36:12.845Z,3.50
2017-06-17T10:38:42.303Z,4.27
2017-06-17T10:41:11.845Z,3.93
2017-06-17T10:43:41.342Z,4.20
2017-06-17T10:46:10.923Z,4.43
2017-06-17T10:48:40.549Z,4.13
2017-06-17T10:51:10.165Z,4.47
2017-06-17T10:53:39.567Z,3.80
2017-06-17T10:56:08.964Z,3.50
2017-06-17T10:58:38.157Z,3.90
2017-06-17T11:01:07.546Z,3.77
2017-06-17T11:03:36.971Z,4.10
2017-06-17T11:06:06.416Z,3.63
2017-06-17T11:08:35.796Z,4.23
2017-06-17T11:11:05.448Z,4.53
2017-06-17T11:13:35.024Z,4.23
2017-06-17T11:16:04.284Z,5.27
2017-06-17T11:18:33.492Z,4.27
2017-06-17T11:21:02.673Z,4.00
2017-06-17T11:23:32.270Z,4.77
2017-06-17T11:26:01.654Z,3.67
2017-06-17T11:28:30.944Z,4.50
2017-06-17T11:31:01.203Z,4.20
2017-06-17T11:33:30.417Z,3.73
2017-06-17T11:35:59.737Z,4.10
2017-06-17T11:38:29.174Z,4.17
2017-06-17T11:40:58.901Z,4.87
2017-06-17T11:43:28.520Z,4.10
2017-06-17T11:45:57.957Z,3.83
2017-06-17T11:48:27.467Z,4.20
2017-06-17T11:50:56.977Z,4.10
2017-06-17T11:53:26.340Z,3.80
2017-06-17T11:55:55.711Z,4.37
2017-06-17T11:58:25.789Z,4.20
2017-06-17T12:00:54.922Z,3.97
2017-06-17T12:03:25.062Z,3.80
2017-06-17T12:05:54.342Z,4.17
2017-06-17T12:08:23.902Z,3.90
2017-06-17T12:10:53.177Z,3.77
2017-06-17T12:13:22.510Z,3.30
2017-06-17T12:15:51.875Z,4.00
2017-06-17T12:18:21.455Z,3.27
2017-06-17T12:20:50.946Z,3.73
2017-06-17T12:23:20.893Z,3.13
2017-06-17T12:25:51.335Z,3.40
2017-06-17T12:28:20.781Z,3.03
2017-06-17T12:30:50.476Z,4.00
2017-06-17T12:33:19.790Z,3.73
2017-06-17T12:35:49.270Z,4.37
2017-06-17T12:38:18.755Z,4.37
2017-06-17T12:40:48.060Z,3.47
2017-06-17T12:43:18.379Z,3.53
2017-06-17T12:45:47.065Z,3.50
2017-06-17T12:48:16.307Z,3.80
2017-06-17T12:50:45.749Z,3.63
2017-06-17T12:53:15.136Z,4.30
2017-06-17T12:55:44.685Z,3.40
2017-06-17T12:58:14.172Z,3.80
2017-06-17T13:00:43.603Z,3.77
2017-06-17T13:03:12.945Z,3.57
2017-06-17T13:05:42.255Z,3.80
2017-06-17T13:08:11.815Z,3.53
2017-06-17T13:10:40.986Z,3.40
2017-06-17T13:13:10.381Z,3.60
2017-06-17T13:15:39.820Z,4.23
2017-06-17T13:18:09.084Z,3.37
2017-06-17T13:20:39.552Z,4.30
2017-06-17T13:23:09.369Z,3.37
2017-06-17T13:25:38.938Z,3.27
2017-06-17T13:28:09.313Z,3.83
2017-06-17T13:30:38.654Z,3.77
2017-06-17T13:33:08.955Z,3.83
2017-06-17T13:35:38.269Z,4.53
2017-06-17T13:38:07.509Z,4.17
2017-06-17T13:40:36.923Z,4.57
2017-06-17T13:43:06.485Z,4.67
2017-06-17T13:45:35.853Z,3.80
2017-06-17T13:48:05.113Z,3.67
2017-06-17T13:50:34.594Z,3.50
2017-06-17T13:53:05.018Z,4.23
2017-06-17T13:55:34.458Z,3.80
2017-06-17T13:58:04.015Z,4.03
2017-06-17T14:00:33.410Z,3.97
2017-06-17T14:03:02.705Z,3.40
2017-06-17T14:05:31.892Z,4.40
2017-06-17T14:08:01.418Z,4.20
2017-06-17T14:10:31.175Z,3.53
2017-06-17T14:13:00.513Z,3.50
2017-06-17T14:15:29.950Z,3.27
2017-06-17T14:17:59.332Z,2.77
2017-06-17T14:20:28.939Z,3.13
2017-06-17T14:22:57.758Z,3.30
2017-06-17T14:25:27.496Z,3.73
2017-06-17T14:27:56.729Z,3.20
2017-06-17T14:30:26.913Z,3.90
2017-06-17T14:32:56.606Z,3.03
2017-06-17T14:35:26.180Z,3.07
2017-06-17T14:37:55.675Z,3.50
2017-06-17T14:40:25.170Z,3.60
2017-06-17T14:42:54.880Z,3.73
2017-06-17T14:45:24.201Z,3.67
2017-06-17T14:47:53.433Z,3.93
2017-06-17T14:50:23.065Z,3.60
2017-06-17T14:52:51.983Z,3.53
2017-06-17T14:55:21.428Z,4.10
2017-06-17T14:57:51.081Z,3.93
2017-06-17T15:00:20.434Z,4.10
2017-06-17T15:02:49.901Z,3.47
2017-06-17T15:05:19.250Z,4.40
2017-06-17T15:07:48.741Z,4.10
2017-06-17T15:10:18.153Z,3.73
2017-06-17T15:12:47.303Z,3.40
2017-06-17T15:15:16.779Z,3.43
2017-06-17T15:17:46.186Z,3.87
2017-06-17T15:20:16.036Z,3.43
2017-06-17T15:22:45.604Z,3.90
2017-06-17T15:25:15.280Z,3.60
2017-06-17T15:27:44.881Z,4.67
2017-06-17T15:30:14.118Z,3.33
2017-06-17T15:32:44.516Z,3.77
2017-06-17T15:35:14.477Z,3.37
2017-06-17T15:37:43.905Z,3.33
2017-06-17T15:40:13.236Z,4.70
2017-06-17T15:42:42.556Z,4.70
2017-06-17T15:45:11.835Z,3.80
2017-06-17T15:47:41.488Z,3.90
2017-06-17T15:50:10.903Z,4.23
2017-06-17T15:52:40.492Z,3.17
2017-06-17T15:55:10.022Z,3.67
2017-06-17T15:57:46.837Z,3.27
2017-06-17T16:00:16.520Z,3.10
2017-06-17T16:02:45.853Z,3.47
2017-06-17T16:05:21.998Z,4.43
2017-06-17T16:07:51.279Z,3.93
2017-06-17T16:10:20.615Z,3.70
2017-06-17T16:12:49.877Z,3.30
2017-06-17T16:15:19.026Z,3.03
2017-06-17T16:17:48.186Z,2.90
2017-06-17T16:20:17.528Z,3.23
2017-06-17T16:22:47.911Z,3.93
2017-06-17T16:25:17.419Z,3.80
2017-06-17T16:27:46.810Z,2.90
2017-06-17T16:30:16.426Z,3.53
2017-06-17T16:32:46.723Z,3.83
2017-06-17T16:35:16.181Z,4.07
2017-06-17T16:37:45.809Z,3.23
2017-06-17T16:40:15.323Z,2.87
2017-06-17T16:42:44.535Z,4.10
2017-06-17T16:45:14.200Z,3.60
2017-06-17T16:47:44.633Z,3.60
2017-06-17T16:50:15.573Z,3.23
2017-06-17T16:52:45.839Z,3.80
2017-06-17T16:55:15.288Z,3.07
2017-06-17T16:57:46.146Z,2.87
2017-06-17T17:00:17.853Z,3.50
2017-06-17T17:02:47.329Z,3.33
2017-06-17T17:05:16.739Z,2.30
2017-06-17T17:07:46.217Z,2.80
2017-06-17T17:10:15.708Z,3.23
2017-06-17T17:12:45.370Z,3.67
2017-06-17T17:15:15.064Z,2.70
2017-06-17T17:17:44.255Z,3.03
2017-06-17T17:20:13.524Z,3.00
2017-06-17T17:22:42.942Z,1.97
2017-06-17T17:25:12.442Z,2.40
2017-06-17T17:27:41.855Z,1.60
2017-06-17T17:30:11.414Z,1.90
2017-06-17T17:32:40.798Z,2.50
2017-06-17T17:35:11.486Z,2.07
2017-06-17T17:37:40.999Z,2.50
2017-06-17T17:40:10.128Z,2.53
2017-06-17T17:42:39.179Z,2.77
2017-06-17T17:45:09.344Z,1.83
2017-06-17T17:47:39.877Z,2.43
2017-06-17T17:50:09.323Z,2.50
2017-06-17T17:52:38.568Z,2.67
2017-06-17T17:55:08.004Z,2.60
2017-06-17T17:57:37.274Z,2.70
2017-06-17T18:00:06.634Z,2.30
2017-06-17T18:02:37.214Z,3.23
2017-06-17T18:05:06.824Z,2.53
2017-06-17T18:07:36.339Z,2.70
2017-06-17T18:10:05.633Z,1.87
2017-06-17T18:12:35.059Z,2.30
2017-06-17T18:15:04.297Z,2.10
2017-06-17T18:17:33.691Z,2.70
2017-06-17T18:20:03.662Z,3.10
2017-06-17T18:22:40.592Z,2.80
2017-06-17T18:25:10.967Z,2.47
2017-06-17T18:27:42.321Z,2.50
2017-06-17T18:30:11.665Z,2.83
2017-06-17T18:32:41.409Z,2.63
2017-06-17T18:35:11.486Z,2.93
2017-06-17T18:37:41.127Z,2.93
2017-06-17T18:40:10.410Z,3.33
2017-06-17T18:42:39.958Z,2.57
2017-06-17T18:45:09.219Z,3.30
2017-06-17T18:47:40.194Z,3.10
2017-06-17T18:50:28.046Z,2.90
2017-06-17T18:52:58.102Z,2.67
2017-06-17T18:55:27.486Z,2.70
2017-06-17T18:57:56.952Z,2.67
2017-06-17T19:00:26.517Z,3.07
2017-06-17T19:02:55.808Z,2.83
2017-06-17T19:05:26.558Z,2.70
2017-06-17T19:07:55.756Z,2.80
2017-06-17T19:10:26.313Z,2.80
2017-06-17T19:12:56.646Z,2.83
2017-06-17T19:15:26.040Z,2.13
2017-06-17T19:17:55.658Z,2.23
2017-06-17T19:20:25.231Z,2.30
2017-06-17T19:22:54.766Z,2.60
2017-06-17T19:25:24.263Z,2.60
2017-06-17T19:27:53.945Z,2.23
2017-06-17T19:30:24.158Z,2.60
2017-06-17T19:32:53.592Z,2.80
2017-06-17T19:35:23.339Z,1.93
2017-06-17T19:37:52.951Z,2.67
2017-06-17T19:40:22.403Z,2.30
2017-06-17T19:42:51.866Z,2.03
2017-06-17T19:45:22.485Z,2.60
2017-06-17T19:47:52.239Z,2.80
2017-06-17T19:50:22.737Z,1.80
2017-06-17T19:52:52.295Z,2.63
2017-06-17T19:55:22.427Z,2.27
2017-06-17T19:57:52.316Z,2.90
2017-06-17T20:00:21.815Z,4.50
2017-06-17T20:02:58.576Z,2.30
2017-06-17T20:05:28.286Z,2.10
2017-06-17T20:07:57.527Z,2.30
2017-06-17T20:10:27.434Z,2.20
2017-06-17T20:12:56.867Z,2.00
2017-06-17T20:15:26.319Z,2.10
2017-06-17T20:17:55.735Z,2.57
2017-06-17T20:20:25.718Z,2.03
2017-06-17T20:22:55.438Z,1.90
2017-06-17T20:25:25.023Z,2.03
2017-06-17T20:27:54.397Z,2.30
2017-06-17T20:30:23.615Z,2.10
2017-06-17T20:32:53.277Z,2.37
2017-06-17T20:35:22.499Z,2.27
2017-06-17T20:37:52.854Z,2.73
2017-06-17T20:40:22.447Z,2.70
2017-06-17T20:42:52.273Z,2.50
2017-06-17T20:45:21.665Z,1.80
2017-06-17T20:47:51.409Z,1.77
2017-06-17T20:50:21.360Z,2.37
2017-06-17T20:52:50.900Z,2.20
2017-06-17T20:55:20.350Z,2.30
2017-06-17T20:57:54.613Z,2.80
2017-06-17T21:00:24.058Z,2.40
2017-06-17T21:02:53.471Z,2.10
2017-06-17T21:05:23.849Z,2.77
2017-06-17T21:07:54.240Z,3.07
2017-06-17T21:10:23.449Z,2.23
2017-06-17T21:12:52.447Z,1.83
2017-06-17T21:15:23.241Z,2.43
2017-06-17T21:17:52.919Z,2.47
2017-06-17T21:20:22.285Z,2.73
2017-06-17T21:22:51.721Z,2.13
2017-06-17T21:25:21.478Z,2.13
2017-06-17T21:27:51.947Z,2.23
2017-06-17T21:30:21.320Z,2.10
2017-06-17T21:32:50.889Z,2.53
2017-06-17T21:35:20.252Z,1.93
2017-06-17T21:37:49.533Z,2.40
2017-06-17T21:40:18.608Z,2.50
2017-06-17T21:42:47.976Z,2.30
2017-06-17T21:45:17.771Z,2.47
2017-06-17T21:47:47.322Z,2.00
2017-06-17T21:50:16.582Z,2.07
2017-06-17T21:52:46.005Z,2.20
2017-06-17T21:55:15.269Z,2.03
2017-06-17T21:57:44.570Z,2.10
2017-06-17T22:00:15.270Z,2.20
2017-06-17T22:02:45.001Z,2.23
2017-06-17T22:05:14.461Z,2.13
2017-06-17T22:07:43.748Z,2.30
2017-06-17T22:10:13.226Z,1.90
2017-06-17T22:12:42.665Z,2.00
2017-06-17T22:15:12.476Z,3.47
2017-06-17T22:17:41.927Z,3.30
2017-06-17T22:20:11.518Z,2.70
2017-06-17T22:22:41.118Z,2.20
2017-06-17T22:25:10.806Z,2.63
2017-06-17T22:27:40.310Z,2.10
2017-06-17T22:30:09.750Z,3.10
2017-06-17T22:32:40.233Z,2.10
2017-06-17T22:35:09.757Z,2.57
2017-06-17T22:37:39.452Z,2.23
2017-06-17T22:40:09.117Z,2.27
2017-06-17T22:42:38.405Z,2.60
2017-06-17T22:45:08.799Z,2.20
2017-06-17T22:47:38.164Z,2.83
2017-06-17T22:50:07.683Z,2.60
2017-06-17T22:52:37.203Z,2.47
2017-06-17T22:55:06.737Z,2.10
2017-06-17T22:57:36.071Z,2.73
2017-06-17T23:00:05.306Z,2.90
2017-06-17T23:02:35.573Z,3.10
2017-06-17T23:05:05.915Z,2.63
2017-06-17T23:07:35.719Z,2.70
2017-06-17T23:10:05.262Z,2.57
2017-06-17T23:12:34.711Z,2.77
2017-06-17T23:15:04.056Z,2.30
2017-06-17T23:17:33.274Z,2.60
2017-06-17T23:20:02.707Z,4.00
2017-06-17T23:22:31.990Z,6.40
2017-06-17T23:25:01.126Z,3.97
2017-06-17T23:27:31.523Z,2.87
2017-06-17T23:30:01.102Z,3.07
2017-06-17T23:32:30.844Z,2.50
2017-06-17T23:35:00.316Z,2.60
2017-06-17T23:37:29.785Z,3.13
2017-06-17T23:39:59.258Z,3.10
2017-06-17T23:42:29.019Z,3.10
2017-06-17T23:44:58.670Z,2.57
2017-06-17T23:47:27.785Z,3.30
2017-06-17T23:49:57.261Z,3.20
2017-06-17T23:52:26.559Z,3.20
2017-06-17T23:54:56.070Z,3.10
2017-06-17T23:57:25.336Z,2.80
2017-06-17T23:59:54.722Z,2.50
